Historyczne dane pomiarowe

Dodano dane terminowe – wersja testowa.

Dane z okresu 1951-2019

Wersja bazy: 1.34 [2019-03-16, lista zmian], aktualizacja planowana na 2019-04-15

Dane meteo z obszaru Polski uzyskane na podstawie danych udostępnionych przez Instytut Meteorologii i Gospodarki Wodnej – Państwowy Instytut Badawczy.

 

Wybierz Datę:    

       

TemperaturaWilgotnośćWiatrCiśnienieOpadyŚniegCzas trwania zjawisk
 Stacja t tx tn tng RH VA  wxwx mslp ppp RRR   cm mm wxwxwxwxwxwxwx
1987-08-14 12.9 17.1 10.0 6.9-- 5.3 2.0---- 4.8------------
1987-08-13 13.4 20.5 7.9 5.4-- 4.7 1.0---- 0.0------------
1987-08-12 13.2 19.7 6.4 3.4-- 4.3 1.7---- 0.0------------
1987-08-11 13.7 19.2 10.1 7.1-- 4.0 2.7---- 0.0------------
1987-08-10 15.0 20.8 10.9 8.8-- 7.0 2.0---- 7.6------------
1987-08-09 17.4 25.1 9.4 6.0-- 4.3 4.3---- 2.8------------
1987-08-08 14.5 22.5 7.9 4.2-- 2.3 1.7---- 0.0------------
1987-08-07 9.8 15.3 5.9 2.5-- 6.3 1.0---- 3.7------------
1987-08-06 12.3 17.1 9.2 6.9-- 5.0 2.7---- 0.0------------
1987-08-05 13.0 17.9 7.4 4.4-- 6.7 1.7---- 0.4------------
1987-08-04 15.1 18.2 14.2 11.9-- 6.3 3.7---- 0.0------------
1987-08-03 14.9 21.7 9.9 6.9-- 6.0 0.3---- 2.4------------
1987-08-02 15.0 20.9 11.9 9.8-- 7.3 3.7---- 1.7------------
1987-08-01 15.7 22.2 12.8 9.8-- 7.7 3.0---- 3.0------------
1987-07-31 15.8 21.6 14.1 13.7-- 7.3 1.7---- 1.7------------
1987-07-30 17.8 24.8 9.4 6.1-- 4.0 2.0---- 9.1------------
1987-07-29 14.9 21.4 10.9 8.3-- 5.0 1.0---- 0.0------------
1987-07-28 13.4 16.6 12.6 11.6-- 8.0 2.7---- 1.2------------
1987-07-27 12.8 18.0 7.9 5.4-- 6.0 3.0---- 3.7------------
1987-07-26 12.7 18.4 11.2 11.8-- 7.0 1.0---- 2.0------------
1987-07-25 18.5 24.6 14.8 12.6-- 3.0 1.7---- 0.3------------
1987-07-24 19.6 27.1 17.0 14.9-- 5.7 2.7---- 15.8------------
1987-07-23 19.7 28.5 12.7 10.1-- 2.0 0.0---- 2.6------------
1987-07-22 19.0 25.2 14.8 13.1-- 1.3 0.7---- 0.0------------
1987-07-21 19.3 25.9 12.8 10.3-- 4.7 3.3---- 0.0------------
1987-07-20 19.1 24.1 16.3 15.9-- 2.7 1.3---- 0.0------------
1987-07-19 20.5 26.2 17.9 16.3-- 6.7 1.7---- 6.6------------
1987-07-18 23.3 29.2 16.7 14.1-- 1.3 1.3---- 0.0------------
1987-07-17 24.1 31.0 17.8 15.2-- 4.7 3.3---- 0.0------------
1987-07-16 21.2 28.5 13.1 11.8-- 2.0 1.0---- 0.0------------
1987-07-15 18.4 25.5 8.9 5.5-- 1.3 1.3---- 0.0------------
1987-07-14 16.0 22.6 10.4 6.9-- 0.3 0.3---- 0.0------------
1987-07-13 18.3 22.6 13.0 10.0-- 3.3 1.0---- 0.0------------
1987-07-12 20.6 28.0 15.9 11.8-- 4.3 4.0---- 3.2------------
1987-07-11 17.6 25.1 8.9 5.9-- 1.3 2.3---- 0.0------------
1987-07-10 15.2 20.2 10.4 7.8-- 2.3 2.3---- 0.0------------
1987-07-09 16.9 23.1 14.7 14.9-- 8.0 2.3---- 5.2------------
1987-07-08 20.7 27.5 14.0 10.1-- 3.7 3.3---- 1.2------------
1987-07-07 19.1 26.6 9.0 6.1-- 0.0 1.7---- 0.0------------
1987-07-06 18.3 24.6 10.7 7.8-- 1.3 0.3---- 0.0------------
1987-07-05 16.0 20.2 11.9 10.3-- 5.0 2.0---- 0.0------------
1987-07-04 18.2 24.1 12.8 10.1-- 3.3 2.7---- 0.0------------
1987-07-03 18.8 22.8 15.5 14.2-- 7.7 1.3---- 0.0------------
1987-07-02 17.8 21.5 15.8 16.7-- 6.7 1.0---- 2.1------------
1987-07-01 22.8 29.4 17.8 14.9-- 0.0 2.0---- 0.0------------
1987-06-30 23.0 29.4 15.3 12.9-- 0.0 0.7---- 0.0------------
1987-06-29 21.6 26.5 17.3 14.9-- 2.3 0.3---- 0.0------------
1987-06-28 19.0 25.3 10.9 8.2-- 4.7 1.0---- 0.0------------
1987-06-27 16.5 20.6 15.5 13.5-- 7.0 1.0---- 0.2------------
1987-06-26 16.4 24.0 8.9 6.4-- 7.0 1.7---- 7.4------------
1987-06-25 15.0 17.3 13.1 10.8-- 6.3 1.7---- 0.0------------
1987-06-24 16.0 21.2 11.9 9.3-- 2.7 1.7---- 1.1------------
1987-06-23 15.8 20.7 12.1 10.4-- 4.0 0.0---- 0.2------------
1987-06-22 13.4 17.8 12.8 12.7-- 8.0 3.0---- 0.0------------
1987-06-21 16.8 23.6 9.2 7.0-- 6.0 2.7---- 1.3------------
1987-06-20 14.8 20.8 9.1 6.4-- 4.7 1.0---- 5.7------------
1987-06-19 12.6 18.0 7.8 5.9-- 1.7 2.0---- 0.8------------
1987-06-18 11.4 14.9 8.1 5.4-- 6.3 4.3---- 2.4------------
1987-06-17 12.5 16.3 8.4 5.9-- 3.3 1.3---- 0.0------------
1987-06-16 12.7 25.3 10.4 9.8-- 8.0 3.7---- 3.6------------
2436.2 ms

 

Źródłem pochodzenia danych jest Instytut Meteorologii i Gospodarki Wodnej – Państwowy Instytut Badawczy. Dane Instytutu Meteorologii i Gospodarki Wodnej – Państwowego Instytutu Badawczego zostały przetworzone.

Dane źródłowe można odnaleźć na stronie https://dane.imgw.pl